Time;durP1;ratioP1;P1;durP2;ratioP2;P2;SDS_P1;SDS_P2;PMS_P1;PMS_P2;Temp;Humidity;BMP_temperature;BMP_pressure;BME280_temperature;BME280_humidity;BME280_pressure;Samples;Min_cycle;Max_cycle;Signal;HPM_P1;HPM_P2
2023/07/05 00:01:45;;;;;;;9.53;4.97;;;;;;;15.45;100.00;100273.56;5324634;28;20023;-71
2023/07/05 00:04:16;;;;;;;10.00;4.73;;;;;;;15.42;100.00;100264.06;5326245;28;20088;-70
2023/07/05 00:06:51;;;;;;;7.60;4.40;;;;;;;15.44;100.00;100251.72;5326142;28;20035;-71
2023/07/05 00:09:23;;;;;;;7.55;3.72;;;;;;;15.49;100.00;100254.16;5326201;28;20039;-70
2023/07/05 00:11:56;;;;;;;7.90;3.97;;;;;;;15.42;100.00;100242.19;5326289;28;20038;-71
2023/07/05 00:14:28;;;;;;;9.73;3.90;;;;;;;15.47;100.00;100242.84;5324722;28;20482;-71
2023/07/05 00:17:00;;;;;;;;;;;;;;;15.57;100.00;100236.28;5326623;28;20024;-71
2023/07/05 00:19:31;;;;;;;8.65;4.10;;;;;;;15.45;100.00;100210.53;5325978;28;20316;-72
2023/07/05 00:22:03;;;;;;;6.33;4.40;;;;;;;15.35;100.00;100201.34;5325859;28;20035;-71
2023/07/05 00:24:34;;;;;;;6.67;4.17;;;;;;;15.31;100.00;100193.59;5325829;28;20059;-71
2023/07/05 00:27:05;;;;;;;7.17;4.13;;;;;;;15.28;100.00;100180.59;5325686;28;20043;-70
2023/07/05 00:29:37;;;;;;;5.13;3.63;;;;;;;15.26;100.00;100177.19;5326104;27;20059;-71
2023/07/05 00:32:08;;;;;;;5.40;3.53;;;;;;;15.33;100.00;100175.16;5325224;28;20092;-69
2023/07/05 00:34:40;;;;;;;6.83;4.20;;;;;;;15.27;100.00;100157.88;5325812;28;20077;-71
2023/07/05 00:37:11;;;;;;;8.73;4.80;;;;;;;15.24;100.00;100157.16;5325638;28;20132;-70
2023/07/05 00:39:42;;;;;;;5.10;3.63;;;;;;;15.23;100.00;100116.94;5324570;28;20432;-70
2023/07/05 00:42:14;;;;;;;5.13;3.50;;;;;;;15.21;100.00;100125.78;5324528;28;20036;-71
2023/07/05 00:45:09;;;;;;;5.30;4.00;;;;;;;15.12;100.00;100140.16;5325538;28;20355;-71
2023/07/05 00:47:42;;;;;;;6.72;3.53;;;;;;;15.15;100.00;100153.16;5325562;28;20055;-71
2023/07/05 00:50:20;;;;;;;;;;;;;;;15.04;100.00;100152.75;5325750;28;20054;-70
2023/07/05 00:52:54;;;;;;;4.85;3.65;;;;;;;15.05;100.00;100141.31;5325749;28;19915;-71
2023/07/05 00:55:27;;;;;;;9.82;3.65;;;;;;;15.00;100.00;100140.66;5325491;28;20478;-71
2023/07/05 00:57:58;;;;;;;;;;;;;;;15.00;100.00;100136.25;5325757;28;20024;-72
2023/07/05 01:00:30;;;;;;;8.20;3.92;;;;;;;14.99;100.00;100128.44;5325363;28;19912;-71
2023/07/05 01:03:07;;;;;;;5.35;3.75;;;;;;;14.98;100.00;100124.97;5323785;28;20019;-71
2023/07/05 01:05:38;;;;;;;6.03;3.90;;;;;;;14.97;100.00;100122.41;5325448;28;20023;-71
2023/07/05 01:08:10;;;;;;;8.33;3.83;;;;;;;15.09;100.00;100112.25;5325259;28;20042;-71
2023/07/05 01:10:51;;;;;;;9.00;3.83;;;;;;;15.02;100.00;100118.69;5325445;28;20024;-72
2023/07/05 01:13:46;;;;;;;8.35;3.90;;;;;;;15.00;100.00;100103.91;5325507;28;20031;-72
2023/07/05 01:16:22;;;;;;;5.63;4.05;;;;;;;14.99;100.00;100103.06;5325213;28;20479;-71
2023/07/05 01:19:19;;;;;;;6.47;4.45;;;;;;;14.98;100.00;100109.22;5325114;28;20115;-73
2023/07/05 01:22:02;;;;;;;7.55;4.25;;;;;;;14.95;100.00;100107.56;5303440;28;20479;-72
2023/07/05 01:24:58;;;;;;;8.82;3.97;;;;;;;14.95;100.00;100112.81;5325257;28;20042;-71
2023/07/05 01:27:47;;;;;;;12.45;5.03;;;;;;;15.01;100.00;100105.63;5325053;28;20027;-72
2023/07/05 01:30:27;;;;;;;9.25;4.20;;;;;;;14.97;100.00;100115.38;5324865;28;20032;-72
2023/07/05 01:33:31;;;;;;;6.40;3.70;;;;;;;14.93;100.00;100119.91;5324680;28;20156;-71
2023/07/05 01:36:04;;;;;;;6.55;3.60;;;;;;;14.88;100.00;100116.63;5324940;28;20036;-72
2023/07/05 01:38:35;;;;;;;7.22;4.05;;;;;;;14.84;100.00;100119.44;5323650;28;20111;-71
2023/07/05 01:41:07;;;;;;;5.07;3.30;;;;;;;14.81;100.00;100123.06;5325073;28;20514;-71
2023/07/05 01:43:41;;;;;;;6.15;3.55;;;;;;;14.82;100.00;100130.00;5325147;28;20028;-71
2023/07/05 01:46:21;;;;;;;7.05;3.97;;;;;;;14.83;100.00;100126.47;5323813;28;20104;-73
2023/07/05 01:48:53;;;;;;;5.30;3.72;;;;;;;14.82;100.00;100130.00;5325074;28;20036;-71
2023/07/05 01:51:40;;;;;;;5.53;3.22;;;;;;;14.76;100.00;100127.63;5324927;28;20031;-72
2023/07/05 01:54:28;;;;;;;7.80;3.08;;;;;;;14.69;100.00;100127.00;5324820;28;20078;-72
2023/07/05 01:57:16;;;;;;;8.38;3.30;;;;;;;14.65;100.00;100137.69;5324721;28;20114;-71
2023/07/05 01:59:57;;;;;;;5.85;3.40;;;;;;;14.62;100.00;100145.69;5325034;28;20496;-71
2023/07/05 02:02:37;;;;;;;8.70;3.45;;;;;;;14.58;100.00;100161.50;5324462;28;20049;-72
2023/07/05 02:05:10;;;;;;;6.65;3.25;;;;;;;14.51;100.00;100169.69;5324654;28;20107;-72
2023/07/05 02:07:44;;;;;;;5.53;3.25;;;;;;;14.41;100.00;100184.94;5324950;28;20035;-70
2023/07/05 02:10:15;;;;;;;6.05;2.70;;;;;;;14.31;100.00;100179.19;5324815;28;20046;-71
2023/07/05 02:12:47;;;;;;;5.60;2.90;;;;;;;14.20;100.00;100207.56;5327609;28;20055;-72
2023/07/05 02:15:20;;;;;;;3.67;2.05;;;;;;;14.06;100.00;100213.31;5328842;28;20541;-74
2023/07/05 02:17:52;;;;;;;4.35;2.20;;;;;;;13.92;100.00;100207.72;5328422;28;20064;-74
2023/07/05 02:20:23;;;;;;;3.03;1.83;;;;;;;13.85;100.00;100214.94;5328773;28;20166;-72
2023/07/05 02:22:55;;;;;;;5.87;2.50;;;;;;;13.79;100.00;100223.00;5328638;28;20031;-73
2023/07/05 02:25:27;;;;;;;2.30;1.90;;;;;;;13.72;100.00;100218.88;5328593;28;20023;-72
2023/07/05 02:27:58;;;;;;;5.20;2.70;;;;;;;13.66;100.00;100236.53;5328684;28;20051;-72
2023/07/05 02:30:30;;;;;;;4.00;2.30;;;;;;;13.66;100.00;100220.81;5328256;28;20035;-72
2023/07/05 02:33:01;;;;;;;3.57;2.47;;;;;;;13.69;100.00;100243.44;5327987;28;20023;-72
2023/07/05 02:35:37;;;;;;;3.73;2.07;;;;;;;13.66;100.00;100270.56;5328459;28;20032;-74
2023/07/05 02:38:08;;;;;;;4.80;2.58;;;;;;;13.68;100.00;100257.41;5328188;28;20123;-74
2023/07/05 02:40:46;;;;;;;5.40;3.27;;;;;;;13.59;100.00;100242.03;5328151;28;20122;-73
2023/07/05 02:43:18;;;;;;;4.78;3.20;;;;;;;13.49;100.00;100255.44;5328065;28;20040;-72
2023/07/05 02:45:49;;;;;;;4.40;2.60;;;;;;;13.43;100.00;100246.94;5328171;28;20063;-72
2023/07/05 02:48:21;;;;;;;3.67;2.73;;;;;;;13.38;100.00;100265.41;5327935;28;20119;-74
2023/07/05 02:50:52;;;;;;;5.33;3.20;;;;;;;13.32;100.00;100250.75;5327958;28;20039;-72
2023/07/05 02:53:23;;;;;;;8.40;3.40;;;;;;;13.34;100.00;100244.63;5328144;28;20028;-73
2023/07/05 02:55:55;;;;;;;4.70;2.87;;;;;;;13.31;100.00;100242.91;5328011;28;20106;-73
2023/07/05 02:58:26;;;;;;;8.87;3.57;;;;;;;13.30;100.00;100257.78;5327656;28;20042;-73
2023/07/05 03:00:58;;;;;;;4.87;2.87;;;;;;;13.28;100.00;100241.25;5327626;28;20371;-73
2023/07/05 03:03:29;;;;;;;4.97;3.30;;;;;;;13.20;100.00;100252.88;5327158;28;20028;-72
2023/07/05 03:06:01;;;;;;;7.60;3.23;;;;;;;13.20;100.00;100247.63;5327923;28;20070;-72
2023/07/05 03:08:32;;;;;;;5.30;3.27;;;;;;;13.12;100.00;100240.03;5327789;28;20089;-72
2023/07/05 03:11:04;;;;;;;7.13;4.07;;;;;;;13.03;100.00;100238.56;5327672;28;20106;-76
2023/07/05 03:13:36;;;;;;;4.83;3.63;;;;;;;12.97;100.00;100243.16;5326272;28;20028;-74
2023/07/05 03:16:07;;;;;;;8.13;4.32;;;;;;;12.95;100.00;100257.13;5327339;28;20032;-74
2023/07/05 03:18:39;;;;;;;8.57;3.47;;;;;;;12.98;100.00;100252.72;5327305;28;20028;-73
2023/07/05 03:21:10;;;;;;;4.97;3.37;;;;;;;12.98;100.00;100250.94;5327502;28;20027;-73
2023/07/05 03:23:41;;;;;;;6.23;3.37;;;;;;;13.02;100.00;100251.69;5326398;28;20118;-74
2023/07/05 03:26:13;;;;;;;11.63;4.03;;;;;;;13.07;100.00;100244.56;5327104;28;20020;-74
2023/07/05 03:28:45;;;;;;;6.53;4.00;;;;;;;13.06;100.00;100246.31;5327085;28;20031;-72
2023/07/05 03:31:17;;;;;;;6.43;3.57;;;;;;;13.04;100.00;100255.13;5326924;28;20059;-72
2023/07/05 03:33:51;;;;;;;7.38;4.10;;;;;;;13.03;100.00;100246.41;5326815;28;20035;-72
2023/07/05 03:36:23;;;;;;;7.28;3.65;;;;;;;13.03;100.00;100256.88;5327277;28;20090;-73
2023/07/05 03:38:57;;;;;;;6.50;3.85;;;;;;;13.11;100.00;100243.56;5327057;28;20059;-73
2023/07/05 03:41:29;;;;;;;7.57;3.92;;;;;;;13.14;99.96;100251.31;5325934;28;20038;-74
2023/07/05 03:44:03;;;;;;;7.20;4.73;;;;;;;13.17;99.00;100255.59;5327017;27;20031;-73
2023/07/05 03:46:35;;;;;;;7.07;4.43;;;;;;;13.17;99.18;100250.34;5325746;28;20063;-74
2023/07/05 03:49:06;;;;;;;7.40;3.90;;;;;;;13.17;99.39;100258.19;5326614;28;20439;-72
2023/07/05 03:51:38;;;;;;;7.53;4.23;;;;;;;13.19;100.00;100253.78;5326563;28;20059;-74
2023/07/05 03:54:09;;;;;;;6.40;4.00;;;;;;;13.12;99.72;100248.75;5327171;28;20023;-74
2023/07/05 03:56:41;;;;;;;7.63;4.07;;;;;;;13.15;100.00;100247.78;5326519;28;20058;-73
2023/07/05 03:59:12;;;;;;;7.07;4.07;;;;;;;13.17;100.00;100250.34;5326531;28;20400;-73
2023/07/05 04:01:44;;;;;;;8.33;3.80;;;;;;;13.18;99.33;100244.22;5325194;28;20031;-74
2023/07/05 04:04:15;;;;;;;9.53;4.40;;;;;;;13.20;99.98;100245.03;5324541;28;20133;-74
2023/07/05 04:06:47;;;;;;;9.00;5.43;;;;;;;13.15;99.40;100232.06;5326501;28;20020;-74
2023/07/05 04:09:18;;;;;;;6.40;3.87;;;;;;;13.18;99.58;100239.00;5326361;28;20061;-73
2023/07/05 04:11:50;;;;;;;9.33;4.60;;;;;;;13.16;98.53;100244.28;5326544;28;20027;-73
2023/07/05 04:14:21;;;;;;;5.77;3.93;;;;;;;13.17;99.18;100240.75;5326155;28;20028;-74
2023/07/05 04:16:53;;;;;;;7.07;4.80;;;;;;;13.16;99.00;100251.28;5325999;28;20027;-73
2023/07/05 04:19:24;;;;;;;9.30;4.83;;;;;;;13.23;98.53;100250.16;5325915;28;20504;-72
2023/07/05 04:21:55;;;;;;;9.00;5.53;;;;;;;13.32;98.62;100250.75;5326097;27;20527;-73
2023/07/05 04:24:27;;;;;;;6.40;4.53;;;;;;;13.42;97.15;100240.81;5326229;27;20024;-74
2023/07/05 04:26:58;;;;;;;6.77;4.23;;;;;;;13.41;96.35;100260.06;5325915;28;20036;-73
2023/07/05 04:29:30;;;;;;;7.67;4.40;;;;;;;13.42;96.70;100255.69;5326365;28;20031;-73
2023/07/05 04:32:01;;;;;;;6.97;4.70;;;;;;;13.43;94.96;100262.66;5325805;28;20056;-73
2023/07/05 04:34:33;;;;;;;7.33;4.43;;;;;;;13.46;94.14;100259.94;5325233;28;20031;-73
2023/07/05 04:37:04;;;;;;;7.73;4.33;;;;;;;13.43;94.52;100253.03;5325635;28;20039;-73
2023/07/05 04:39:36;;;;;;;6.50;4.30;;;;;;;13.42;94.67;100274.84;5325740;28;20463;-78
2023/07/05 04:42:08;;;;;;;7.13;4.13;;;;;;;13.43;95.05;100253.03;5325022;28;20077;-72
2023/07/05 04:44:39;;;;;;;6.33;4.00;;;;;;;13.45;94.31;100261.66;5325643;28;20093;-73
2023/07/05 04:47:11;;;;;;;8.93;4.43;;;;;;;13.47;93.57;100272.09;5325856;28;20418;-73
2023/07/05 04:49:44;;;;;;;7.10;4.33;;;;;;;13.52;93.89;100264.94;5324397;28;20089;-73
2023/07/05 04:52:15;;;;;;;8.07;4.45;;;;;;;13.55;93.68;100254.38;5325373;28;20028;-72
2023/07/05 04:54:47;;;;;;;6.90;3.80;;;;;;;13.50;93.13;100251.03;5325800;28;20101;-72
2023/07/05 04:57:18;;;;;;;6.23;4.43;;;;;;;13.56;91.59;100252.63;5325500;28;20475;-73
2023/07/05 04:59:51;;;;;;;6.40;4.43;;;;;;;13.62;91.71;100260.25;5325399;28;20035;-73
2023/07/05 05:02:22;;;;;;;8.75;4.32;;;;;;;13.65;91.84;100247.91;5324919;28;20035;-74
2023/07/05 05:04:54;;;;;;;9.93;4.17;;;;;;;13.58;91.04;100264.72;5325712;28;20485;-73
2023/07/05 05:07:26;;;;;;;6.57;4.00;;;;;;;13.59;91.36;100273.47;5325346;28;20127;-74
2023/07/05 05:09:59;;;;;;;8.43;4.03;;;;;;;13.66;90.37;100274.97;5325239;28;20028;-73
2023/07/05 05:12:31;;;;;;;7.30;4.45;;;;;;;13.70;90.50;100273.97;5325252;28;20110;-74
2023/07/05 05:15:02;;;;;;;6.03;4.30;;;;;;;13.67;90.06;100279.31;5325353;28;20119;-73
2023/07/05 05:17:34;;;;;;;7.70;3.73;;;;;;;13.63;90.10;100270.66;5325651;28;20082;-74
2023/07/05 05:20:06;;;;;;;7.93;4.17;;;;;;;13.58;89.41;100293.53;5324054;28;20059;-74
2023/07/05 05:22:38;;;;;;;9.57;4.20;;;;;;;13.53;88.62;100276.28;5324157;28;20114;-74
2023/07/05 05:25:09;;;;;;;7.27;3.93;;;;;;;13.55;89.40;100277.09;5325397;28;20221;-74
2023/07/05 05:27:41;;;;;;;9.10;4.37;;;;;;;13.56;88.84;100289.28;5325062;28;20028;-72
2023/07/05 05:30:12;;;;;;;8.23;3.87;;;;;;;13.55;88.68;100282.31;5325156;28;20036;-73
2023/07/05 05:32:45;;;;;;;6.87;3.97;;;;;;;13.48;87.48;100279.91;5324909;28;20051;-75
2023/07/05 05:35:17;;;;;;;7.50;4.05;;;;;;;13.51;88.13;100292.06;5324011;28;20036;-73
2023/07/05 05:37:52;;;;;;;7.72;3.85;;;;;;;13.52;88.13;100280.66;5324983;28;20030;-73
2023/07/05 05:40:23;;;;;;;9.60;4.07;;;;;;;13.55;87.51;100296.25;5325145;28;20050;-74
2023/07/05 05:42:54;;;;;;;11.30;4.03;;;;;;;13.49;88.23;100302.56;5325156;28;20031;-72
2023/07/05 05:45:26;;;;;;;8.53;4.17;;;;;;;13.59;88.81;100291.81;5325024;28;20046;-74
2023/07/05 05:47:57;;;;;;;5.60;4.20;;;;;;;13.54;87.43;100302.44;5328341;28;20409;-74
2023/07/05 05:50:30;;;;;;;5.47;3.40;;;;;;;13.54;88.03;100286.72;5329278;28;20055;-75
2023/07/05 05:53:02;;;;;;;5.70;3.75;;;;;;;13.51;87.62;100292.06;5329429;28;20035;-76
2023/07/05 05:55:35;;;;;;;7.77;3.73;;;;;;;13.57;87.25;100319.78;5329360;28;20045;-74
2023/07/05 05:58:08;;;;;;;6.68;3.42;;;;;;;13.60;87.25;100296.13;5329347;28;20376;-73
2023/07/05 06:00:40;;;;;;;5.65;3.72;;;;;;;13.69;87.98;100311.53;5329482;28;20110;-73
2023/07/05 06:03:11;;;;;;;6.60;3.83;;;;;;;13.68;86.72;100312.44;5329324;28;20192;-76
2023/07/05 06:05:42;;;;;;;8.40;3.67;;;;;;;13.47;89.16;100340.16;5330912;28;20028;-72
2023/07/05 06:08:14;;;;;;;6.13;3.50;;;;;;;13.10;91.18;100333.44;5330420;28;20067;-73
2023/07/05 06:10:46;;;;;;;5.83;3.37;;;;;;;13.15;92.55;100342.00;5329839;28;20110;-73
2023/07/05 06:13:17;;;;;;;;;;;;;;;13.34;91.30;100339.69;5331015;28;20040;-73
2023/07/05 06:16:01;;;;;;;8.75;3.67;;;;;;;13.46;89.55;100338.47;5330252;28;19919;-74
2023/07/05 06:18:33;;;;;;;5.85;3.30;;;;;;;13.53;89.99;100342.59;5332592;28;20104;-74
2023/07/05 06:21:04;;;;;;;5.70;2.87;;;;;;;13.52;88.87;100337.41;5331371;28;20060;-72
2023/07/05 06:23:35;;;;;;;7.07;3.50;;;;;;;13.41;88.08;100351.72;5332824;28;20035;-73
2023/07/05 06:26:09;;;;;;;6.97;3.30;;;;;;;13.40;89.56;100352.59;5332680;28;20076;-73
2023/07/05 06:28:40;;;;;;;12.18;3.38;;;;;;;13.48;88.07;100354.97;5334856;28;20024;-78
2023/07/05 06:31:12;;;;;;;8.30;3.90;;;;;;;13.65;87.50;100357.03;5333188;28;20355;-74
2023/07/05 06:33:43;;;;;;;8.48;3.25;;;;;;;13.66;86.60;100357.00;5331472;28;20111;-74
2023/07/05 06:36:15;;;;;;;17.67;4.47;;;;;;;13.72;84.75;100347.22;5331191;28;20098;-73
2023/07/05 06:38:46;;;;;;;6.93;3.37;;;;;;;13.86;83.90;100361.59;5330636;28;20036;-74
2023/07/05 06:41:18;;;;;;;6.97;3.07;;;;;;;14.09;83.15;100366.94;5328986;28;20028;-76
2023/07/05 06:43:50;;;;;;;6.47;3.10;;;;;;;14.11;82.65;100371.25;5330027;28;20038;-75
2023/07/05 06:46:21;;;;;;;5.50;3.33;;;;;;;14.10;82.89;100387.03;5330211;28;20024;-75
2023/07/05 06:48:52;;;;;;;6.53;2.60;;;;;;;14.13;81.71;100400.88;5329296;27;20035;-74
2023/07/05 06:51:24;;;;;;;5.77;2.63;;;;;;;14.09;80.55;100393.16;5327156;28;20032;-74
2023/07/05 06:53:55;;;;;;;6.80;3.07;;;;;;;14.02;80.92;100400.38;5328261;28;20126;-75
2023/07/05 06:56:27;;;;;;;4.57;2.73;;;;;;;14.13;80.31;100398.25;5328322;28;20540;-73
2023/07/05 06:58:58;;;;;;;7.93;2.87;;;;;;;14.28;80.10;100401.25;5327537;28;20131;-75
2023/07/05 07:01:29;;;;;;;7.90;2.97;;;;;;;14.29;78.89;100405.63;5328260;28;20466;-77
2023/07/05 07:04:05;;;;;;;5.83;3.00;;;;;;;14.48;78.94;100427.66;5326317;28;20035;-74
2023/07/05 07:06:36;;;;;;;8.60;2.78;;;;;;;14.57;77.69;100402.88;5327858;28;20028;-76
2023/07/05 07:09:10;;;;;;;4.80;2.73;;;;;;;14.62;78.59;100400.13;5328056;28;20085;-73
2023/07/05 07:11:42;;;;;;;4.90;3.13;;;;;;;14.50;76.53;100444.19;5327608;28;20110;-74
2023/07/05 07:14:13;;;;;;;5.27;2.50;;;;;;;14.62;76.44;100426.34;5327769;28;20110;-73
2023/07/05 07:16:44;;;;;;;4.63;2.30;;;;;;;14.65;76.23;100445.47;5327529;28;20028;-74
2023/07/05 07:19:17;;;;;;;7.83;2.27;;;;;;;14.63;76.57;100425.44;5327173;28;20036;-72
2023/07/05 07:21:49;;;;;;;7.57;2.55;;;;;;;14.61;76.28;100424.66;5326211;28;20036;-77
2023/07/05 07:24:20;;;;;;;5.20;2.80;;;;;;;14.45;80.53;100447.91;5327353;28;20027;-75
2023/07/05 07:26:52;;;;;;;6.57;2.60;;;;;;;13.93;85.61;100440.00;5327779;28;20078;-74
2023/07/05 07:29:23;;;;;;;5.45;2.40;;;;;;;13.59;90.08;100447.16;5327251;28;20034;-74
2023/07/05 07:31:55;;;;;;;10.40;3.40;;;;;;;13.10;92.55;100465.13;5327570;28;20058;-73
2023/07/05 07:34:27;;;;;;;6.40;2.83;;;;;;;12.75;96.11;100466.97;5326742;28;20059;-74
2023/07/05 07:36:59;;;;;;;6.35;3.20;;;;;;;12.59;99.42;100474.38;5327064;27;20441;-73
2023/07/05 07:39:30;;;;;;;7.07;3.07;;;;;;;12.28;100.00;100489.09;5326838;28;20028;-73
2023/07/05 07:42:01;;;;;;;4.93;2.60;;;;;;;12.07;100.00;100477.41;5326988;28;20036;-75
2023/07/05 07:44:33;;;;;;;5.53;2.93;;;;;;;11.98;100.00;100488.97;5326943;28;20359;-77
2023/07/05 07:47:05;;;;;;;3.97;2.70;;;;;;;12.08;100.00;100481.75;5325523;28;20024;-73
2023/07/05 07:49:37;;;;;;;5.55;3.33;;;;;;;12.03;100.00;100487.94;5326599;28;20031;-75
2023/07/05 07:52:10;;;;;;;8.40;3.17;;;;;;;12.03;100.00;100501.00;5326744;28;20111;-74
2023/07/05 07:54:42;;;;;;;8.02;3.70;;;;;;;12.15;100.00;100491.16;5326650;28;20471;-73
2023/07/05 07:57:14;;;;;;;8.63;3.93;;;;;;;12.16;100.00;100498.97;5326615;28;20027;-75
2023/07/05 07:59:45;;;;;;;7.80;3.40;;;;;;;12.18;100.00;100491.09;5326364;28;20023;-75
2023/07/05 08:02:17;;;;;;;6.47;3.78;;;;;;;12.12;100.00;100504.28;5326591;28;20334;-74
2023/07/05 08:04:48;;;;;;;8.73;3.77;;;;;;;11.98;100.00;100502.03;5326502;28;20039;-73
2023/07/05 08:07:20;;;;;;;8.67;3.87;;;;;;;11.88;100.00;100503.06;5326455;28;20382;-74
2023/07/05 08:09:55;;;;;;;7.60;3.53;;;;;;;11.86;100.00;100497.88;5307500;28;20088;-74
2023/07/05 08:12:26;;;;;;;7.18;3.42;;;;;;;11.82;100.00;100499.72;5326110;28;20089;-74
2023/07/05 08:14:58;;;;;;;6.03;3.67;;;;;;;12.01;100.00;100513.25;5326409;28;20032;-75
2023/07/05 08:17:29;;;;;;;5.00;3.00;;;;;;;12.34;100.00;100509.88;5326190;28;20115;-74
2023/07/05 08:20:01;;;;;;;6.30;2.93;;;;;;;12.73;100.00;100515.81;5326381;28;20482;-75
2023/07/05 08:22:32;;;;;;;7.83;3.77;;;;;;;13.18;100.00;100534.72;5325993;28;20034;-75
2023/07/05 08:25:04;;;;;;;6.40;2.80;;;;;;;13.73;95.31;100550.66;5324755;28;20027;-73
2023/07/05 08:27:35;;;;;;;6.63;2.78;;;;;;;14.15;92.02;100531.88;5325990;28;20047;-73
2023/07/05 08:30:07;;;;;;;5.17;2.97;;;;;;;14.34;89.56;100540.88;5325840;28;20074;-75
2023/07/05 08:32:38;;;;;;;9.40;3.28;;;;;;;14.57;85.10;100548.00;5325525;28;20047;-78
2023/07/05 08:35:10;;;;;;;7.10;2.93;;;;;;;15.01;86.25;100549.22;5325857;28;20035;-74
2023/07/05 08:37:49;;;;;;;6.40;2.70;;;;;;;15.38;83.45;100553.16;5326015;28;20062;-74
2023/07/05 08:40:20;;;;;;;9.65;3.28;;;;;;;15.36;80.83;100571.59;5325844;28;20027;-77
2023/07/05 08:43:24;;;;;;;8.47;2.97;;;;;;;15.37;80.41;100562.78;5325957;28;20031;-75
2023/07/05 08:46:03;;;;;;;6.68;3.17;;;;;;;15.26;81.41;100563.19;5302854;28;20439;-74
2023/07/05 08:48:35;;;;;;;9.70;3.78;;;;;;;15.37;81.14;100578.53;5326030;28;20034;-75
2023/07/05 08:51:12;;;;;;;6.73;2.83;;;;;;;15.62;81.46;100590.78;5325754;28;20031;-74
2023/07/05 08:53:48;;;;;;;13.23;3.38;;;;;;;15.60;80.22;100579.47;5325662;28;20024;-73
2023/07/05 08:56:25;;;;;;;10.48;3.03;;;;;;;15.73;78.69;100614.03;5325423;28;20492;-73
2023/07/05 08:59:12;;;;;;;6.32;3.08;;;;;;;15.78;78.82;100599.84;5325931;28;20038;-74
2023/07/05 09:01:44;;;;;;;8.40;3.50;;;;;;;15.99;78.16;100605.22;5325630;28;20084;-75
2023/07/05 09:04:28;;;;;;;6.95;3.28;;;;;;;16.10;77.03;100583.75;5325174;28;20143;-76
2023/07/05 09:07:02;;;;;;;7.25;3.40;;;;;;;16.14;75.74;100607.22;5325799;28;20110;-80
2023/07/05 09:09:45;;;;;;;9.02;3.13;;;;;;;16.35;75.97;100621.31;5325775;28;20115;-74
2023/07/05 09:12:34;;;;;;;7.00;2.75;;;;;;;16.47;73.23;100640.16;5324823;28;20062;-84
2023/07/05 09:15:23;;;;;;;13.95;3.45;;;;;;;16.67;72.73;100623.59;5325542;28;20373;-75
2023/07/05 09:18:13;;;;;;;7.88;3.28;;;;;;;16.97;71.80;100626.78;5325361;28;20024;-74
2023/07/05 09:20:59;;;;;;;9.68;3.28;;;;;;;16.73;71.03;100658.41;5327362;28;20035;-77
2023/07/05 09:23:39;;;;;;;8.23;3.10;;;;;;;16.83;68.99;100642.25;5329838;28;20475;-74
2023/07/05 09:26:20;;;;;;;9.02;3.50;;;;;;;16.72;69.65;100653.22;5329873;28;20027;-73
2023/07/05 09:29:29;;;;;;;7.00;3.15;;;;;;;16.67;69.00;100658.66;5330322;28;20458;-75
2023/07/05 09:32:07;;;;;;;15.80;3.38;;;;;;;16.92;68.36;100655.03;5329488;28;20472;-77
2023/07/05 09:34:45;;;;;;;10.00;3.53;;;;;;;17.05;65.85;100658.91;5329313;27;20024;-77
2023/07/05 09:37:22;;;;;;;7.60;2.60;;;;;;;17.39;66.94;100665.38;5329584;28;20024;-76
2023/07/05 09:40:04;;;;;;;8.43;3.00;;;;;;;17.77;63.64;100677.78;5329155;27;20474;-74
2023/07/05 09:42:47;;;;;;;5.40;2.60;;;;;;;17.54;60.89;100649.81;5329748;27;20061;-76
2023/07/05 09:45:19;;;;;;;10.48;2.92;;;;;;;17.65;61.35;100676.56;5329437;28;20047;-74
2023/07/05 09:47:59;;;;;;;8.35;2.50;;;;;;;17.70;61.95;100666.66;5329527;28;20084;-74
2023/07/05 09:50:31;;;;;;;13.40;3.42;;;;;;;17.48;59.21;100699.25;5330673;28;20478;-79
2023/07/05 09:53:38;;;;;;;6.20;2.13;;;;;;;17.64;60.25;100688.00;5329317;28;20037;-76
2023/07/05 09:56:15;;;;;;;11.40;3.13;;;;;;;17.92;59.47;100692.97;5329108;28;20034;-74
2023/07/05 09:58:48;;;;;;;7.40;2.03;;;;;;;18.07;57.71;100688.75;5329475;28;20035;-74
2023/07/05 10:01:23;;;;;;;8.07;2.20;;;;;;;18.23;57.68;100712.66;5329298;28;20169;-75
2023/07/05 10:03:57;;;;;;;7.97;2.28;;;;;;;18.00;58.10;100708.41;5329500;28;20572;-74
2023/07/05 10:06:29;;;;;;;7.95;2.15;;;;;;;18.21;57.88;100703.97;5330473;28;20107;-75
2023/07/05 10:09:11;;;;;;;10.88;2.20;;;;;;;18.20;55.59;100711.00;5330763;28;20035;-75
2023/07/05 10:11:57;;;;;;;4.88;2.10;;;;;;;18.87;55.58;100731.69;5329784;28;20047;-76
2023/07/05 10:14:33;;;;;;;8.88;2.08;;;;;;;19.43;53.50;100725.41;5329066;28;20031;-78
2023/07/05 10:17:08;;;;;;;5.05;1.75;;;;;;;20.17;50.78;100726.00;5328737;28;20031;-73
2023/07/05 10:19:51;;;;;;;7.72;2.63;;;;;;;19.80;49.64;100727.94;5328484;28;20466;-77
2023/07/05 10:22:30;;;;;;;;;;;;;;;20.07;49.28;100744.16;5329263;28;20378;-74
2023/07/05 10:25:14;;;;;;;8.77;2.05;;;;;;;20.05;45.99;100753.97;5328928;28;20009;-84
2023/07/05 10:27:51;;;;;;;9.70;2.50;;;;;;;19.95;47.43;100760.72;5328552;28;20024;-74
2023/07/05 10:30:22;;;;;;;4.30;2.10;;;;;;;19.91;49.02;100765.28;5327450;28;20100;-76
2023/07/05 10:33:13;;;;;;;6.50;2.80;;;;;;;19.73;46.90;100766.22;5327505;28;20452;-79
2023/07/05 10:35:47;;;;;;;4.13;1.67;;;;;;;19.82;45.17;100760.50;5328540;28;20026;-80
2023/07/05 10:38:24;;;;;;;7.95;2.10;;;;;;;20.86;46.96;100766.41;5328206;28;20421;-73
2023/07/05 10:41:19;;;;;;;7.80;2.00;;;;;;;20.01;47.21;100763.00;5328406;28;20121;-75
2023/07/05 10:44:10;;;;;;;5.40;1.88;;;;;;;19.91;46.15;100810.25;5328121;28;20035;-75
2023/07/05 10:46:45;;;;;;;6.70;1.90;;;;;;;20.26;44.15;100802.28;5328154;28;20046;-78
2023/07/05 10:49:19;;;;;;;4.97;1.90;;;;;;;20.87;42.12;100784.00;5328096;28;20031;-78
2023/07/05 10:51:58;;;;;;;6.32;2.10;;;;;;;20.10;43.91;100783.69;5328454;28;20027;-76
2023/07/05 10:54:53;;;;;;;7.43;2.10;;;;;;;20.53;44.51;100792.00;5328184;28;20031;-73
2023/07/05 10:57:34;;;;;;;7.05;1.83;;;;;;;20.57;42.40;100803.25;5329283;28;20020;-75
2023/07/05 11:00:24;;;;;;;6.80;2.75;;;;;;;20.01;43.37;100826.50;5330367;28;20463;-79
2023/07/05 11:03:00;;;;;;;7.55;2.30;;;;;;;20.60;43.46;100803.09;5328087;28;20038;-75
2023/07/05 11:05:51;;;;;;;5.53;1.83;;;;;;;21.52;40.48;100809.53;5327848;28;20398;-76
2023/07/05 11:08:28;;;;;;;6.90;1.70;;;;;;;22.29;39.79;100792.53;5327924;28;20028;-76
2023/07/05 11:11:09;;;;;;;5.25;1.90;;;;;;;21.00;41.13;100827.44;5326294;28;20028;-74
2023/07/05 11:13:40;;;;;;;3.78;1.55;;;;;;;21.00;42.95;100811.53;5327763;28;20032;-74
2023/07/05 11:16:19;;;;;;;9.47;1.83;;;;;;;22.21;40.20;100816.00;5328010;28;20076;-75
2023/07/05 11:18:56;;;;;;;4.57;2.28;;;;;;;21.12;40.70;100837.34;5327782;28;20356;-77
2023/07/05 11:21:45;;;;;;;5.35;1.90;;;;;;;21.82;39.60;100818.31;5327856;28;20024;-74
2023/07/05 11:24:31;;;;;;;7.63;2.15;;;;;;;22.35;38.75;100816.03;5327479;28;20044;-75
2023/07/05 11:27:29;;;;;;;7.20;2.63;;;;;;;22.67;38.13;100826.47;5327898;28;20067;-75
2023/07/05 11:30:00;;;;;;;4.88;2.10;;;;;;;23.20;36.67;100829.34;5327733;28;20046;-76
2023/07/05 11:33:02;;;;;;;5.57;1.83;;;;;;;23.08;37.97;100824.81;5328384;28;20347;-78
2023/07/05 11:35:43;;;;;;;7.50;2.22;;;;;;;22.62;38.30;100831.22;5331508;28;20053;-75
2023/07/05 11:38:36;;;;;;;4.88;1.70;;;;;;;23.87;37.31;100835.59;5327721;28;20032;-73
2023/07/05 11:41:23;;;;;;;4.05;1.80;;;;;;;23.39;36.68;100834.28;5329474;28;20462;-77
2023/07/05 11:44:22;;;;;;;7.97;2.65;;;;;;;25.17;35.87;100827.38;5327175;28;20028;-75
2023/07/05 11:46:54;;;;;;;4.80;1.90;;;;;;;24.49;34.39;100846.38;5330460;28;20038;-74
2023/07/05 11:49:42;;;;;;;12.30;2.55;;;;;;;22.29;36.29;100847.41;5329823;28;20047;-79
2023/07/05 11:52:31;;;;;;;8.43;2.20;;;;;;;23.30;35.71;100849.03;5331364;28;20031;-75
2023/07/05 11:55:24;;;;;;;4.95;2.13;;;;;;;24.56;33.65;100858.34;5329292;28;20030;-75
2023/07/05 11:58:08;;;;;;;6.13;1.88;;;;;;;23.35;34.90;100854.06;5330732;28;20023;-75
2023/07/05 12:01:01;;;;;;;8.73;2.20;;;;;;;21.66;37.99;100865.28;5333316;28;20019;-80